createdAt,value
2023-05-12T00:00:22.503Z,57.82
2023-05-12T00:05:26.204Z,57.77
2023-05-12T00:10:31.301Z,58.57
2023-05-12T00:15:34.749Z,58.00
2023-05-12T00:20:38.281Z,57.48
2023-05-12T00:25:43.229Z,56.93
2023-05-12T00:30:46.849Z,57.35
2023-05-12T00:35:50.328Z,57.94
2023-05-12T00:40:55.204Z,57.61
2023-05-12T00:45:58.740Z,57.89
2023-05-12T00:51:02.366Z,57.81
2023-05-12T00:56:07.516Z,57.72
2023-05-12T01:01:11.266Z,57.96
2023-05-12T01:06:19.705Z,57.06
2023-05-12T01:11:24.684Z,58.35
2023-05-12T01:16:32.256Z,57.47
2023-05-12T01:21:35.754Z,57.99
2023-05-12T01:26:40.839Z,58.08
2023-05-12T01:31:44.776Z,56.71
2023-05-12T01:36:48.300Z,57.69
2023-05-12T01:41:53.194Z,56.91
2023-05-12T01:46:56.727Z,57.53
2023-05-12T01:52:00.248Z,57.22
2023-05-12T01:57:05.591Z,57.45
2023-05-12T02:02:09.167Z,57.08
2023-05-12T02:07:12.773Z,56.46
2023-05-12T02:12:17.963Z,57.54
2023-05-12T02:17:21.506Z,57.71
2023-05-12T02:22:25.055Z,57.32
2023-05-12T02:27:32.659Z,56.89
2023-05-12T02:32:36.135Z,56.41
2023-05-12T02:37:39.856Z,56.11
2023-05-12T02:42:45.774Z,56.38
2023-05-12T02:47:49.801Z,56.57
2023-05-12T02:52:53.486Z,56.22
2023-05-12T02:57:58.486Z,56.99
2023-05-12T03:03:02.160Z,56.79
2023-05-12T03:08:06.101Z,55.67
2023-05-12T03:13:10.946Z,56.29
2023-05-12T03:18:14.380Z,56.17
2023-05-12T03:23:18.259Z,56.14
2023-05-12T03:28:24.930Z,56.68
2023-05-12T03:33:28.443Z,56.08
2023-05-12T03:38:32.073Z,55.89
2023-05-12T03:43:36.979Z,56.81
2023-05-12T03:48:40.431Z,56.83
2023-05-12T03:53:46.465Z,56.86
2023-05-12T03:58:51.293Z,56.12
2023-05-12T04:03:54.844Z,55.60
2023-05-12T04:08:58.559Z,55.83
2023-05-12T04:14:03.448Z,55.99
2023-05-12T04:19:07.071Z,55.68
2023-05-12T04:24:10.903Z,56.57
2023-05-12T04:29:15.784Z,56.10
2023-05-12T04:34:19.258Z,55.22
2023-05-12T04:39:22.707Z,56.27
2023-05-12T04:58:33.846Z,56.48
2023-05-12T05:03:37.575Z,56.60
2023-05-12T05:08:41.177Z,55.60
2023-05-12T05:13:46.134Z,55.34
2023-05-12T05:18:49.687Z,55.53
2023-05-12T05:23:53.344Z,55.53
2023-05-12T05:28:58.217Z,55.51
2023-05-12T05:34:01.714Z,55.81
2023-05-12T05:39:05.354Z,55.62
2023-05-12T05:44:10.285Z,56.76
2023-05-12T05:49:13.915Z,55.33
2023-05-12T05:54:17.453Z,55.68
2023-05-12T05:59:22.342Z,55.20
2023-05-12T06:04:26.116Z,55.39
2023-05-12T06:09:29.717Z,56.72
2023-05-12T06:14:34.670Z,56.09
2023-05-12T06:19:38.213Z,55.56
2023-05-12T06:24:41.710Z,56.46
2023-05-12T06:29:46.592Z,56.75
2023-05-12T06:34:50.244Z,56.26
2023-05-12T06:39:53.740Z,55.20
2023-05-12T06:44:58.638Z,56.53
2023-05-12T06:50:02.147Z,56.12
2023-05-12T06:55:07.238Z,55.36
2023-05-12T07:00:13.746Z,56.20
2023-05-12T07:05:17.359Z,55.96
2023-05-12T07:10:22.223Z,57.08
2023-05-12T07:15:27.213Z,55.55
2023-05-12T07:20:30.673Z,56.43
2023-05-12T07:25:34.283Z,56.06
2023-05-12T07:30:39.261Z,57.02
2023-05-12T07:35:42.820Z,55.50
2023-05-12T07:40:46.336Z,56.67
2023-05-12T07:45:51.357Z,56.42
2023-05-12T07:50:54.810Z,56.80
2023-05-12T07:55:58.338Z,56.69
2023-05-12T08:01:06.205Z,57.37
2023-05-12T08:06:09.723Z,55.77
2023-05-12T08:11:13.709Z,57.06
2023-05-12T08:16:18.764Z,56.98
2023-05-12T08:21:22.317Z,57.54
2023-05-12T08:26:26.108Z,56.34
2023-05-12T08:31:31.315Z,56.62
2023-05-12T08:36:34.920Z,56.36
2023-05-12T08:41:44.740Z,56.49
2023-05-12T08:46:50.171Z,56.60
2023-05-12T08:51:58.057Z,56.63
2023-05-12T09:02:11.271Z,56.38
2023-05-12T09:07:14.973Z,56.10
2023-05-12T09:12:21.589Z,56.52
2023-05-12T09:17:26.593Z,56.48
2023-05-12T09:22:30.813Z,57.40
2023-05-12T09:27:34.329Z,56.59
2023-05-12T09:32:39.388Z,56.94
2023-05-12T09:37:43.057Z,56.94
2023-05-12T09:42:47.688Z,56.80
2023-05-12T09:47:52.653Z,55.87
2023-05-12T09:52:56.558Z,55.88
2023-05-12T09:58:00.304Z,55.71
2023-05-12T10:03:11.329Z,55.69
2023-05-12T10:08:19.217Z,55.96
2023-05-12T10:13:23.030Z,56.41
2023-05-12T10:18:28.151Z,56.11
2023-05-12T10:23:31.801Z,56.81
2023-05-12T10:28:35.350Z,56.78
2023-05-12T10:33:40.260Z,57.16
2023-05-12T10:38:43.716Z,55.43
2023-05-12T10:43:51.342Z,56.57
2023-05-12T10:48:57.526Z,56.29
2023-05-12T10:54:02.375Z,55.40
2023-05-12T10:59:10.510Z,56.23
2023-05-12T11:04:16.820Z,56.02
2023-05-12T11:09:21.875Z,55.35
2023-05-12T11:14:25.716Z,56.26
2023-05-12T11:19:30.905Z,55.46
2023-05-12T11:24:34.514Z,55.72
2023-05-12T11:29:40.104Z,55.79
2023-05-12T11:34:44.986Z,56.09
2023-05-12T11:39:48.521Z,55.62
2023-05-12T11:44:52.023Z,57.24
2023-05-12T11:49:57.146Z,55.92
2023-05-12T11:55:01.808Z,56.34
2023-05-12T12:00:07.109Z,56.73
2023-05-12T12:05:19.698Z,55.63
2023-05-12T12:10:23.383Z,57.11
2023-05-12T12:15:26.921Z,57.31
2023-05-12T12:20:32.430Z,57.15
2023-05-12T12:25:36.008Z,55.82
2023-05-12T12:30:39.509Z,57.27
2023-05-12T12:35:44.452Z,57.17
2023-05-12T12:40:48.214Z,57.28
2023-05-12T12:45:51.740Z,56.45
2023-05-12T12:50:56.873Z,56.45
2023-05-12T12:56:00.454Z,56.20
2023-05-12T13:01:04.015Z,56.03
2023-05-12T13:06:09.482Z,55.78
2023-05-12T13:11:13.098Z,56.13
2023-05-12T13:16:16.648Z,56.79
2023-05-12T13:21:21.537Z,55.87
2023-05-12T13:26:25.014Z,55.46
2023-05-12T13:31:28.729Z,56.55
2023-05-12T13:36:34.906Z,55.83
2023-05-12T13:41:38.429Z,55.66
2023-05-12T13:46:42.007Z,55.77
2023-05-12T13:51:47.124Z,55.66
2023-05-12T13:56:50.614Z,57.12
2023-05-12T14:01:54.203Z,55.68
2023-05-12T14:06:59.183Z,56.83
2023-05-12T14:12:02.794Z,56.70
2023-05-12T14:17:06.671Z,55.70
2023-05-12T14:22:22.444Z,57.02
2023-05-12T14:27:29.575Z,55.81
2023-05-12T14:32:34.521Z,55.54
2023-05-12T14:37:39.596Z,55.77
2023-05-12T14:42:43.557Z,57.04
2023-05-12T14:47:47.456Z,55.69
2023-05-12T14:52:52.372Z,56.85
2023-05-12T14:57:55.957Z,55.67
2023-05-12T15:02:59.567Z,55.60
2023-05-12T15:08:04.578Z,56.92
2023-05-12T15:13:08.210Z,55.98
2023-05-12T15:18:11.818Z,55.80
2023-05-12T15:23:16.799Z,56.52
2023-05-12T15:28:21.319Z,55.25
2023-05-12T15:33:25.101Z,55.71
2023-05-12T15:38:30.072Z,55.64
2023-05-12T15:43:33.746Z,55.83
2023-05-12T15:48:37.192Z,56.29
2023-05-12T15:53:42.257Z,57.01
2023-05-12T15:58:45.959Z,55.86
2023-05-12T16:03:49.677Z,55.99
2023-05-12T16:08:54.733Z,57.10
2023-05-12T16:13:58.444Z,56.93
2023-05-12T16:19:02.191Z,56.93
2023-05-12T16:24:08.998Z,55.93
2023-05-12T16:29:13.982Z,57.32
2023-05-12T16:34:18.288Z,55.84
2023-05-12T16:39:23.229Z,57.26
2023-05-12T16:44:27.246Z,55.66
2023-05-12T16:49:30.710Z,55.92
2023-05-12T16:54:35.639Z,56.97
2023-05-12T16:59:39.905Z,57.34
2023-05-12T17:04:43.471Z,57.00
2023-05-12T17:09:48.575Z,56.60
2023-05-12T17:15:03.430Z,56.53
2023-05-12T17:20:11.941Z,55.85
2023-05-12T17:25:17.474Z,56.96
2023-05-12T17:30:21.458Z,56.60
2023-05-12T17:35:25.445Z,55.71
2023-05-12T17:40:30.334Z,56.36
2023-05-12T17:45:34.157Z,56.94
2023-05-12T17:50:37.614Z,56.94
2023-05-12T17:55:42.576Z,56.84
2023-05-12T18:00:46.060Z,55.60
2023-05-12T18:05:49.594Z,55.75
2023-05-12T18:10:54.497Z,56.75
2023-05-12T18:15:58.017Z,56.75
2023-05-12T18:21:02.317Z,55.98
2023-05-12T18:26:07.196Z,55.22
2023-05-12T18:36:17.322Z,55.44
2023-05-12T18:41:22.188Z,55.54
2023-05-12T18:46:25.959Z,55.72
2023-05-12T18:51:29.630Z,55.17
2023-05-12T18:56:34.583Z,55.25
2023-05-12T19:01:38.224Z,53.09
2023-05-12T19:06:42.028Z,54.16
2023-05-12T19:11:47.087Z,50.00
2023-05-12T19:16:50.608Z,51.96
2023-05-12T19:21:54.254Z,53.25
2023-05-12T19:26:59.507Z,54.30
2023-05-12T19:32:03.319Z,53.46
2023-05-12T19:37:07.136Z,53.81
2023-05-12T19:42:12.603Z,54.29
2023-05-12T19:47:16.111Z,55.55
2023-05-12T19:52:19.629Z,54.48
2023-05-12T19:57:24.650Z,53.42
2023-05-12T20:02:31.079Z,54.36
2023-05-12T20:07:34.865Z,55.25
2023-05-12T20:12:39.755Z,56.75
2023-05-12T20:17:43.350Z,55.56
2023-05-12T20:22:46.924Z,56.79
2023-05-12T20:27:51.847Z,57.10
2023-05-12T20:32:55.353Z,56.44
2023-05-12T20:37:58.867Z,57.16
2023-05-12T20:43:03.926Z,57.16
2023-05-12T20:48:07.759Z,55.84
2023-05-12T20:53:11.367Z,56.93
2023-05-12T20:58:16.414Z,57.28
2023-05-12T21:03:19.899Z,57.80
2023-05-12T21:08:23.560Z,55.00
2023-05-12T21:13:28.478Z,53.58
2023-05-12T21:18:31.927Z,53.55
2023-05-12T21:23:36.360Z,52.79
2023-05-12T21:28:41.645Z,52.11
2023-05-12T21:33:45.199Z,52.08
2023-05-12T21:38:48.934Z,52.48
2023-05-12T21:43:53.828Z,52.57
2023-05-12T21:48:57.282Z,53.61
2023-05-12T21:54:00.965Z,52.01
2023-05-12T21:59:05.858Z,54.09
2023-05-12T22:04:09.492Z,51.94
2023-05-12T22:09:13.072Z,54.23
2023-05-12T22:14:18.161Z,53.88
2023-05-12T22:19:21.984Z,54.52
2023-05-12T22:24:25.595Z,53.54
2023-05-12T22:29:30.613Z,54.00
2023-05-12T22:34:34.192Z,55.24
2023-05-12T22:39:37.631Z,55.15
2023-05-12T22:44:42.575Z,54.92
2023-05-12T22:49:46.150Z,54.72
2023-05-12T22:54:53.192Z,55.59
2023-05-12T22:59:58.245Z,55.79
2023-05-12T23:05:01.675Z,54.64
2023-05-12T23:10:05.813Z,55.78
2023-05-12T23:15:11.577Z,54.57
2023-05-12T23:20:15.125Z,54.65
2023-05-12T23:25:18.608Z,54.84
2023-05-12T23:30:23.625Z,55.46
2023-05-12T23:35:27.503Z,55.34
2023-05-12T23:40:33.488Z,56.43
2023-05-12T23:45:38.494Z,55.56
2023-05-12T23:50:41.875Z,56.24
2023-05-12T23:55:45.418Z,55.89
